Terminal Aerodrome Forecast
Issued by NWS

Home | Current Version | Previous Version | Text Only | Print | Product List | Glossary On
Versions: 1 2 3 4 5 6 7 8 9 10 11 12 13 14 15 16
000
FTUS41 KBTV 281120
TAFMSS
TAF
KMSS 281120Z 2812/2912 22012G22KT P6SM VCSH BKN080
      TEMPO 2812/2814 5SM -SHRA OVC045
     FM281500 26010G20KT P6SM BKN040
     FM282000 29010KT P6SM SCT045=

USA.gov is the U.S. government's official web portal to all federal, state and local government web resources and services.